createdAt,value
2022-11-24T00:00:06.486Z,100199.47
2022-11-24T00:02:33.933Z,100202.09
2022-11-24T00:05:01.486Z,100201.25
2022-11-24T00:07:28.997Z,100196.91
2022-11-24T00:09:56.535Z,100196.91
2022-11-24T00:12:24.031Z,100195.16
2022-11-24T00:14:51.556Z,100195.16
2022-11-24T00:17:19.060Z,100194.34
2022-11-24T00:19:46.630Z,100204.84
2022-11-24T00:22:14.116Z,100201.38
2022-11-24T00:24:41.581Z,100212.72
2022-11-24T00:27:09.147Z,100207.50
2022-11-24T00:29:36.695Z,100212.72
2022-11-24T00:32:05.913Z,100216.25
2022-11-24T00:34:33.859Z,100214.53
2022-11-24T00:37:01.509Z,100225.91
2022-11-24T00:39:29.009Z,100225.06
2022-11-24T00:41:56.603Z,100233.75
2022-11-24T00:44:24.167Z,100228.56
2022-11-24T00:46:51.696Z,100232.00
2022-11-24T00:49:19.228Z,100234.66
2022-11-24T00:51:46.793Z,100229.41
2022-11-24T00:54:14.295Z,100233.78
2022-11-24T00:56:41.751Z,100230.34
2022-11-24T00:59:09.367Z,100227.78
2022-11-24T01:01:37.037Z,100222.63
2022-11-24T01:04:05.310Z,100222.63
2022-11-24T01:06:32.986Z,100235.75
2022-11-24T01:09:00.525Z,100234.91
2022-11-24T01:11:50.821Z,100239.31
2022-11-24T01:14:19.507Z,100241.97
2022-11-24T01:16:47.047Z,100242.88
2022-11-24T01:19:15.263Z,100239.44
2022-11-24T01:21:42.805Z,100249.94
2022-11-24T01:24:11.433Z,100248.16
2022-11-24T01:26:39.520Z,100245.59
2022-11-24T01:29:07.526Z,100247.38
2022-11-24T01:31:36.835Z,100255.22
2022-11-24T01:34:04.435Z,100256.97
2022-11-24T01:36:32.120Z,100257.84
2022-11-24T01:38:59.741Z,100260.44
2022-11-24T01:41:27.643Z,100263.06
2022-11-24T01:43:56.861Z,100261.38
2022-11-24T01:46:39.544Z,100257.84
2022-11-24T01:49:44.847Z,100258.78
2022-11-24T01:52:27.702Z,100255.31
2022-11-24T01:55:01.371Z,100261.38
2022-11-24T01:57:47.551Z,100260.44
2022-11-24T02:00:15.807Z,100260.44
2022-11-24T02:02:45.762Z,100255.19
2022-11-24T02:05:18.253Z,100262.16
2022-11-24T02:07:48.282Z,100264.78
2022-11-24T02:10:17.040Z,100272.63
2022-11-24T02:12:50.579Z,100273.50
2022-11-24T02:15:19.523Z,100278.75
2022-11-24T02:17:47.115Z,100283.13
2022-11-24T02:20:16.379Z,100280.50
2022-11-24T02:23:11.437Z,100290.13
2022-11-24T02:26:29.520Z,100292.78
2022-11-24T02:28:57.233Z,100291.94
2022-11-24T02:31:25.243Z,100285.81
2022-11-24T02:33:53.646Z,100291.88
2022-11-24T02:36:21.095Z,100303.16
2022-11-24T02:38:48.726Z,100306.66
2022-11-24T02:41:25.571Z,100303.13
2022-11-24T02:43:58.439Z,100305.78
2022-11-24T02:46:26.094Z,100311.06
2022-11-24T02:48:53.872Z,100313.69
2022-11-24T02:51:23.509Z,100311.06
2022-11-24T02:53:50.995Z,100310.19
2022-11-24T02:56:18.443Z,100313.72
2022-11-24T02:58:45.966Z,100313.75
2022-11-24T03:01:13.754Z,100312.91
2022-11-24T03:03:41.287Z,100311.25
2022-11-24T03:06:08.735Z,100316.50
2022-11-24T03:08:36.243Z,100323.50
2022-11-24T03:11:03.978Z,100320.88
2022-11-24T03:13:31.471Z,100322.66
2022-11-24T03:15:59.042Z,100320.94
2022-11-24T03:18:26.661Z,100318.38
2022-11-24T03:20:59.989Z,100323.63
2022-11-24T03:23:27.503Z,100323.63
2022-11-24T03:25:54.997Z,100325.41
2022-11-24T03:28:22.518Z,100327.09
2022-11-24T03:30:50.243Z,100331.47
2022-11-24T03:33:17.745Z,100319.22
2022-11-24T03:35:45.196Z,100329.59
2022-11-24T03:38:12.673Z,100335.66
2022-11-24T03:40:40.172Z,100333.06
2022-11-24T03:43:07.928Z,100340.00
2022-11-24T03:45:45.910Z,100341.72
2022-11-24T03:48:15.987Z,100341.72
2022-11-24T03:50:44.470Z,100344.34
2022-11-24T03:53:11.960Z,100340.00
2022-11-24T03:55:39.425Z,100339.09
2022-11-24T03:58:06.855Z,100344.28
2022-11-24T04:00:34.407Z,100350.38
2022-11-24T04:03:02.056Z,100348.63
2022-11-24T04:05:29.659Z,100353.78
2022-11-24T04:07:57.654Z,100349.38
2022-11-24T04:10:25.286Z,100353.69
2022-11-24T04:12:52.747Z,100357.13
2022-11-24T04:15:21.533Z,100361.41
2022-11-24T04:17:50.236Z,100353.50
2022-11-24T04:20:17.896Z,100350.84
2022-11-24T04:22:45.315Z,100358.59
2022-11-24T04:25:13.189Z,100361.13
2022-11-24T04:27:40.574Z,100361.03
2022-11-24T04:30:08.516Z,100356.56
2022-11-24T04:32:36.730Z,100353.88
2022-11-24T04:35:04.772Z,100355.59
2022-11-24T04:37:32.135Z,100366.94
2022-11-24T04:39:59.469Z,100363.44
2022-11-24T04:42:26.825Z,100378.28
2022-11-24T04:44:54.206Z,100374.81
2022-11-24T04:47:24.274Z,100378.28
2022-11-24T04:49:52.864Z,100384.34
2022-11-24T04:52:23.140Z,100380.78
2022-11-24T04:54:51.544Z,100389.41
2022-11-24T04:57:25.604Z,100407.63
2022-11-24T04:59:53.985Z,100402.38
2022-11-24T05:02:22.086Z,100415.38
2022-11-24T05:04:49.847Z,100416.25
2022-11-24T05:07:19.878Z,100411.03
2022-11-24T05:10:06.383Z,100406.63
2022-11-24T05:12:33.735Z,100419.72
2022-11-24T05:15:03.821Z,100417.97
2022-11-24T05:17:34.502Z,100422.34
2022-11-24T05:20:01.907Z,100429.38
2022-11-24T05:22:30.181Z,100440.72
2022-11-24T05:24:58.402Z,100443.34
2022-11-24T05:27:25.962Z,100433.78
2022-11-24T05:29:53.382Z,100438.19
2022-11-24T05:32:20.790Z,100443.41
2022-11-24T05:34:48.213Z,100445.16
2022-11-24T05:37:15.644Z,100446.88
2022-11-24T05:39:42.984Z,100459.06
2022-11-24T05:42:28.804Z,100456.44
2022-11-24T05:44:57.327Z,100455.56
2022-11-24T05:47:25.569Z,100456.41
2022-11-24T05:49:52.931Z,100452.91
2022-11-24T05:52:20.268Z,100459.00
2022-11-24T05:54:47.723Z,100458.91
2022-11-24T05:57:17.708Z,100478.16
2022-11-24T05:59:45.474Z,100471.13
2022-11-24T06:02:14.072Z,100478.09
2022-11-24T06:04:41.515Z,100488.56
2022-11-24T06:07:11.750Z,100480.69
2022-11-24T06:09:41.466Z,100483.31
2022-11-24T06:12:11.922Z,100486.84
2022-11-24T06:14:39.790Z,100504.34
2022-11-24T06:17:09.227Z,100502.56
2022-11-24T06:19:41.735Z,100507.81
2022-11-24T06:22:09.569Z,100513.91
2022-11-24T06:24:37.192Z,100515.63
2022-11-24T06:27:04.618Z,100521.72
2022-11-24T06:29:31.967Z,100526.97
2022-11-24T06:31:59.321Z,100524.34
2022-11-24T06:34:26.702Z,100537.44
2022-11-24T06:36:54.108Z,100528.78
2022-11-24T06:39:21.436Z,100538.38
2022-11-24T06:41:52.905Z,100552.38
2022-11-24T06:44:20.255Z,100555.00
2022-11-24T06:46:47.667Z,100560.22
2022-11-24T06:49:15.349Z,100571.56
2022-11-24T06:51:43.140Z,100570.66
2022-11-24T06:54:16.393Z,100564.47
2022-11-24T06:56:43.797Z,100570.56
2022-11-24T06:59:19.555Z,100572.25
2022-11-24T07:01:47.214Z,100581.88
2022-11-24T07:04:15.458Z,100588.84
2022-11-24T07:06:43.653Z,100585.31
2022-11-24T07:09:14.032Z,100597.56
2022-11-24T07:11:42.341Z,100608.94
2022-11-24T07:14:10.224Z,100618.56
2022-11-24T07:16:39.363Z,100623.81
2022-11-24T07:19:06.794Z,100622.09
2022-11-24T07:21:34.173Z,100630.78
2022-11-24T07:24:01.508Z,100623.81
2022-11-24T07:26:28.959Z,100642.97
2022-11-24T07:28:56.348Z,100636.06
2022-11-24T07:31:26.584Z,100633.47
2022-11-24T07:33:55.709Z,100651.88
2022-11-24T07:36:24.271Z,100655.44
2022-11-24T07:38:51.726Z,100661.56
2022-11-24T07:41:20.214Z,100668.59
2022-11-24T07:43:49.052Z,100670.38
2022-11-24T07:46:19.828Z,100674.78
2022-11-24T07:48:47.449Z,100681.78
2022-11-24T07:51:15.779Z,100673.06
2022-11-24T07:53:44.894Z,100685.31
2022-11-24T07:56:12.619Z,100695.81
2022-11-24T07:58:40.093Z,100697.53
2022-11-24T08:01:17.835Z,100700.22
2022-11-24T08:03:46.637Z,100706.31
2022-11-24T08:06:24.467Z,100702.78
2022-11-24T08:08:55.518Z,100705.38
2022-11-24T08:11:23.339Z,100715.81
2022-11-24T08:13:51.182Z,100721.91
2022-11-24T08:16:20.212Z,100727.06
2022-11-24T08:18:53.447Z,100735.75
2022-11-24T08:21:23.461Z,100738.31
2022-11-24T08:23:56.139Z,100747.84
2022-11-24T08:26:25.001Z,100745.16
2022-11-24T08:28:58.459Z,100756.47
2022-11-24T08:31:33.443Z,100759.91
2022-11-24T08:34:03.856Z,100759.91
2022-11-24T08:36:32.281Z,100764.28
2022-11-24T08:39:00.889Z,100769.53
2022-11-24T08:41:29.873Z,100768.66
2022-11-24T08:43:57.914Z,100774.69
2022-11-24T08:46:25.522Z,100779.88
2022-11-24T08:48:55.009Z,100781.56
2022-11-24T08:51:26.573Z,100791.91
2022-11-24T08:53:59.573Z,100797.09
2022-11-24T08:56:31.069Z,100798.75
2022-11-24T08:58:59.296Z,100796.03
2022-11-24T09:01:28.424Z,100804.72
2022-11-24T09:03:56.279Z,100812.56
2022-11-24T09:06:30.102Z,100814.31
2022-11-24T09:08:59.034Z,100812.59
2022-11-24T09:11:27.440Z,100817.00
2022-11-24T09:13:55.576Z,100810.03
2022-11-24T09:16:26.655Z,100816.13
2022-11-24T09:19:06.073Z,100823.97
2022-11-24T09:21:37.744Z,100826.53
2022-11-24T09:24:08.205Z,100830.94
2022-11-24T09:26:40.600Z,100843.16
2022-11-24T09:29:11.124Z,100841.31
2022-11-24T09:31:39.441Z,100849.13
2022-11-24T09:34:11.173Z,100850.81
2022-11-24T09:36:38.623Z,100851.69
2022-11-24T09:39:06.283Z,100856.03
2022-11-24T09:41:52.364Z,100853.31
2022-11-24T09:45:12.282Z,100854.13
2022-11-24T09:48:02.041Z,100862.84
2022-11-24T09:50:37.353Z,100869.72
2022-11-24T09:53:22.881Z,100867.03
2022-11-24T09:55:54.947Z,100870.47
2022-11-24T09:58:43.480Z,100871.22
2022-11-24T10:01:22.619Z,100878.94
2022-11-24T10:03:54.820Z,100885.88
2022-11-24T10:06:31.078Z,100890.97
2022-11-24T10:09:27.712Z,100887.41
2022-11-24T10:12:41.026Z,100901.28
2022-11-24T10:15:58.611Z,100901.16
2022-11-24T10:18:44.698Z,100906.31
2022-11-24T10:21:43.534Z,100903.53
2022-11-24T10:24:32.272Z,100908.69
2022-11-24T10:27:13.707Z,100920.81
2022-11-24T10:29:43.005Z,100920.72
2022-11-24T10:32:37.778Z,100921.47
2022-11-24T10:35:45.787Z,100924.84
2022-11-24T10:38:41.276Z,100924.69
2022-11-24T10:41:18.517Z,100928.94
2022-11-24T10:43:45.904Z,100924.50
2022-11-24T10:46:25.718Z,100926.06
2022-11-24T10:49:00.222Z,100939.06
2022-11-24T10:51:30.291Z,100944.19
2022-11-24T10:54:15.606Z,100949.31
2022-11-24T10:56:46.053Z,100948.38
2022-11-24T10:59:38.380Z,100938.63
2022-11-24T11:02:39.263Z,100941.19
2022-11-24T11:05:31.923Z,100944.56
2022-11-24T11:08:14.608Z,100938.44
2022-11-24T11:10:44.862Z,100947.13
2022-11-24T11:13:30.465Z,100937.31
2022-11-24T11:15:59.216Z,100940.75
2022-11-24T11:18:33.598Z,100948.50
2022-11-24T11:21:03.684Z,100948.38
2022-11-24T11:23:39.886Z,100954.34
2022-11-24T11:26:27.390Z,100961.22
2022-11-24T11:35:03.769Z,100948.50
2022-11-24T11:37:33.681Z,100942.28
2022-11-24T11:40:02.069Z,100940.34
2022-11-24T11:43:00.744Z,100947.22
2022-11-24T11:45:37.484Z,100942.78
2022-11-24T11:48:40.667Z,100929.44
2022-11-24T11:51:55.554Z,100936.22
2022-11-24T11:54:43.183Z,100924.72
2022-11-24T11:57:33.879Z,100938.59
2022-11-24T12:00:16.406Z,100946.44
2022-11-24T12:03:34.638Z,100944.72
2022-11-24T12:06:27.192Z,100945.41
2022-11-24T12:09:41.458Z,100939.13
2022-11-24T12:12:58.038Z,100935.38
2022-11-24T12:15:42.977Z,100935.16
2022-11-24T12:21:34.152Z,100945.28
2022-11-24T12:24:11.627Z,100934.63
2022-11-24T12:27:03.126Z,100940.66
2022-11-24T12:30:12.704Z,100937.88
2022-11-24T12:33:20.121Z,100943.06
2022-11-24T12:36:09.083Z,100949.97
2022-11-24T12:39:30.200Z,100947.22
2022-11-24T12:42:09.917Z,100945.53
2022-11-24T12:44:55.812Z,100948.97
2022-11-24T12:47:58.874Z,100948.94
2022-11-24T12:50:35.073Z,100951.44
2022-11-24T12:53:26.100Z,100954.88
2022-11-24T12:56:00.130Z,100963.59
2022-11-24T12:59:05.258Z,100963.50
2022-11-24T13:01:55.294Z,100957.38
2022-11-24T13:04:42.921Z,100965.22
2022-11-24T13:07:20.391Z,100963.44
2022-11-24T13:13:15.176Z,100966.03
2022-11-24T13:16:34.448Z,100960.59
2022-11-24T13:18:57.231Z,100966.63
2022-11-24T13:21:28.256Z,100957.91
2022-11-24T13:24:20.902Z,100964.09
2022-11-24T13:26:52.644Z,100973.78
2022-11-24T13:29:33.200Z,100970.31
2022-11-24T13:32:06.584Z,100966.84
2022-11-24T13:34:43.057Z,100970.31
2022-11-24T13:37:31.446Z,100958.03
2022-11-24T13:40:13.344Z,100948.31
2022-11-24T13:42:56.447Z,100954.41
2022-11-24T13:45:39.174Z,100951.84
2022-11-24T13:48:26.447Z,100958.03
2022-11-24T13:50:54.069Z,100957.22
2022-11-24T13:53:40.258Z,100945.84
2022-11-24T13:56:13.471Z,100954.66
2022-11-24T13:58:47.912Z,100955.53
2022-11-24T14:01:28.432Z,100958.19
2022-11-24T14:04:30.423Z,100958.19
2022-11-24T14:07:08.380Z,100957.34
2022-11-24T14:09:49.790Z,100943.38
2022-11-24T14:12:24.849Z,100940.88
2022-11-24T14:14:56.902Z,100937.47
2022-11-24T14:17:28.722Z,100942.88
2022-11-24T14:19:58.442Z,100933.34
2022-11-24T14:22:40.430Z,100936.06
2022-11-24T14:25:26.093Z,100944.09
2022-11-24T14:27:54.050Z,100942.53
2022-11-24T14:30:24.275Z,100935.59
2022-11-24T14:33:00.620Z,100940.09
2022-11-24T14:35:34.346Z,100932.38
2022-11-24T14:38:05.162Z,100932.50
2022-11-24T14:40:48.170Z,100943.19
2022-11-24T14:43:31.631Z,100946.00
2022-11-24T14:46:07.570Z,100934.78
2022-11-24T14:48:48.411Z,100938.50
2022-11-24T14:51:28.147Z,100939.59
2022-11-24T14:54:01.678Z,100936.25
2022-11-24T14:56:32.360Z,100939.13
2022-11-24T14:59:00.027Z,100942.75
2022-11-24T15:01:27.480Z,100955.19
2022-11-24T15:04:54.460Z,100951.88
2022-11-24T15:07:25.967Z,100959.13
2022-11-24T15:09:59.932Z,100953.22
2022-11-24T15:12:37.910Z,100958.63
2022-11-24T15:15:20.416Z,100964.03
2022-11-24T15:17:53.458Z,100969.47
2022-11-24T15:20:29.546Z,100966.97
2022-11-24T15:23:28.500Z,100960.06
2022-11-24T15:25:57.523Z,100966.38
2022-11-24T15:28:25.729Z,100973.53
2022-11-24T15:30:56.675Z,100981.56
2022-11-24T15:33:24.124Z,100971.25
2022-11-24T15:35:51.856Z,100977.50
2022-11-24T15:38:19.866Z,100972.41
2022-11-24T15:40:50.907Z,100978.63
2022-11-24T15:43:33.536Z,100975.25
2022-11-24T15:46:03.206Z,100968.41
2022-11-24T15:48:31.503Z,100974.72
2022-11-24T15:51:06.170Z,100974.84
2022-11-24T15:54:02.011Z,100984.63
2022-11-24T15:56:37.703Z,100977.78
2022-11-24T15:59:20.188Z,100979.66
2022-11-24T16:01:51.207Z,100989.38
2022-11-24T16:04:21.719Z,100978.09
2022-11-24T16:06:49.175Z,100979.00
2022-11-24T16:09:17.231Z,100986.03
2022-11-24T16:11:44.782Z,100984.38
2022-11-24T16:14:12.180Z,100987.91
2022-11-24T16:16:40.699Z,100977.53
2022-11-24T16:19:10.264Z,100979.34
2022-11-24T16:21:37.831Z,100980.31
2022-11-24T16:24:05.508Z,100982.19
2022-11-24T16:26:32.858Z,100986.69
2022-11-24T16:29:00.189Z,100987.66
2022-11-24T16:31:27.778Z,100981.63
2022-11-24T16:33:55.206Z,100982.63
2022-11-24T16:36:22.658Z,100991.44
2022-11-24T16:38:50.331Z,100978.38
2022-11-24T16:41:17.944Z,100988.94
2022-11-24T16:43:46.146Z,100980.28
2022-11-24T16:46:21.801Z,100982.06
2022-11-24T16:48:55.626Z,100987.38
2022-11-24T16:51:24.302Z,100986.56
2022-11-24T16:53:59.284Z,100987.50
2022-11-24T16:56:29.023Z,100992.81
2022-11-24T16:58:56.448Z,100993.75
2022-11-24T17:01:23.958Z,100998.13
2022-11-24T17:03:51.646Z,100997.28
2022-11-24T17:06:19.001Z,100988.59
2022-11-24T17:08:47.596Z,100991.22
2022-11-24T17:11:21.658Z,100991.25
2022-11-24T17:13:50.177Z,100990.41
2022-11-24T17:16:21.375Z,100990.41
2022-11-24T17:18:50.065Z,100991.31
2022-11-24T17:21:21.487Z,100981.69
2022-11-24T17:23:57.330Z,100986.94
2022-11-24T17:26:25.928Z,100989.59
2022-11-24T17:28:54.433Z,100984.38
2022-11-24T17:31:25.546Z,100980.03
2022-11-24T17:33:56.188Z,100986.16
2022-11-24T17:36:24.470Z,100984.47
2022-11-24T17:38:52.360Z,100988.88
2022-11-24T17:41:21.057Z,100991.50
2022-11-24T17:43:55.677Z,100999.34
2022-11-24T17:46:28.503Z,100997.59
2022-11-24T17:48:56.492Z,100995.84
2022-11-24T17:51:26.346Z,100996.69
2022-11-24T17:53:55.549Z,100996.66
2022-11-24T17:56:27.782Z,100997.50
2022-11-24T17:59:00.217Z,101000.97
2022-11-24T18:01:32.237Z,101000.94
2022-11-24T18:04:00.054Z,100998.31
2022-11-24T18:06:28.725Z,100994.75
2022-11-24T18:08:57.716Z,100993.88
2022-11-24T18:11:31.726Z,101000.00
2022-11-24T18:14:03.556Z,100998.22
2022-11-24T18:16:33.989Z,100989.47
2022-11-24T18:19:11.589Z,100996.44
2022-11-24T18:21:41.312Z,100999.06
2022-11-24T18:24:11.690Z,100997.31
2022-11-24T18:26:40.884Z,100992.91
2022-11-24T18:29:09.944Z,100985.94
2022-11-24T18:31:38.243Z,100987.66
2022-11-24T18:34:06.654Z,100995.53
2022-11-24T18:36:35.211Z,100994.66
2022-11-24T18:39:08.791Z,100993.75
2022-11-24T18:41:36.519Z,100992.03
2022-11-24T18:44:07.669Z,100989.44
2022-11-24T18:46:36.433Z,100999.06
2022-11-24T18:49:04.646Z,100991.25
2022-11-24T18:51:32.114Z,100989.53
2022-11-24T18:53:59.878Z,100986.09
2022-11-24T18:56:27.273Z,100980.91
2022-11-24T18:58:56.468Z,100982.72
2022-11-24T19:01:29.300Z,100992.41
2022-11-24T19:04:01.684Z,100989.00
2022-11-24T19:06:34.309Z,100975.97
2022-11-24T19:09:06.651Z,100977.78
2022-11-24T19:11:37.720Z,100978.69
2022-11-24T19:14:08.396Z,100984.88
2022-11-24T19:16:36.183Z,100982.31
2022-11-24T19:19:04.622Z,100984.97
2022-11-24T19:21:35.398Z,100984.16
2022-11-24T19:24:05.776Z,100982.44
2022-11-24T19:26:37.090Z,100982.50
2022-11-24T19:29:06.241Z,100973.78
2022-11-24T19:31:34.925Z,100974.72
2022-11-24T19:34:03.410Z,100980.91
2022-11-24T19:36:31.650Z,100973.06
2022-11-24T19:38:59.808Z,100970.50
2022-11-24T19:41:31.163Z,100975.75
2022-11-24T19:43:59.396Z,100989.69
2022-11-24T19:46:29.534Z,100985.38
2022-11-24T19:49:02.582Z,100977.50
2022-11-24T19:51:36.154Z,100975.75
2022-11-24T19:54:06.807Z,100971.44
2022-11-24T19:56:36.923Z,100975.81
2022-11-24T19:59:06.356Z,100977.59
2022-11-24T20:01:38.696Z,100973.22
2022-11-24T20:04:14.873Z,100968.91
2022-11-24T20:06:45.508Z,100971.53
2022-11-24T20:09:16.624Z,100969.81
2022-11-24T20:11:44.778Z,100970.69
2022-11-24T20:14:15.142Z,100981.16
2022-11-24T20:16:43.241Z,100982.06
2022-11-24T20:19:14.311Z,100972.47
2022-11-24T20:21:46.186Z,100986.44
2022-11-24T20:24:21.119Z,100978.59
2022-11-24T20:26:53.671Z,100976.91
2022-11-24T20:29:21.321Z,100975.16
2022-11-24T20:31:53.508Z,100972.56
2022-11-24T20:34:21.820Z,100979.59
2022-11-24T20:36:49.642Z,100981.34
2022-11-24T20:39:25.397Z,100984.84
2022-11-24T20:41:55.203Z,100977.06
2022-11-24T20:44:25.913Z,100984.03
2022-11-24T20:46:56.708Z,100985.75
2022-11-24T20:49:25.000Z,100981.44
2022-11-24T20:51:54.871Z,100986.63
2022-11-24T20:54:22.688Z,100980.50
2022-11-24T20:56:50.115Z,100979.59
2022-11-24T20:59:22.124Z,100973.47
2022-11-24T21:01:51.988Z,100970.81
2022-11-24T21:04:24.356Z,100969.03
2022-11-24T21:06:51.783Z,100964.66
2022-11-24T21:09:19.310Z,100969.00
2022-11-24T21:11:47.111Z,100968.06
2022-11-24T21:14:15.070Z,100968.03
2022-11-24T21:16:43.288Z,100959.28
2022-11-24T21:19:17.041Z,100974.91
2022-11-24T21:21:44.915Z,100960.97
2022-11-24T21:24:16.141Z,100954.81
2022-11-24T21:26:47.661Z,100955.66
2022-11-24T21:29:22.119Z,100960.91
2022-11-24T21:31:49.650Z,100953.03
2022-11-24T21:34:20.507Z,100956.50
2022-11-24T21:36:48.277Z,100951.25
2022-11-24T21:39:16.312Z,100947.72
2022-11-24T21:41:44.432Z,100941.63
2022-11-24T21:44:13.607Z,100942.47
2022-11-24T21:46:46.187Z,100944.16
2022-11-24T21:49:16.841Z,100948.53
2022-11-24T21:51:44.177Z,100954.63
2022-11-24T21:54:11.532Z,100944.09
2022-11-24T21:56:38.899Z,100945.84
2022-11-24T21:59:06.237Z,100943.22
2022-11-24T22:01:33.640Z,100935.31
2022-11-24T22:04:01.080Z,100938.81
2022-11-24T22:06:28.490Z,100934.44
2022-11-24T22:08:55.909Z,100932.69
2022-11-24T22:11:25.495Z,100930.91
2022-11-24T22:13:53.645Z,100930.91
2022-11-24T22:16:24.129Z,100926.59
2022-11-24T22:18:52.001Z,100908.25
2022-11-24T22:21:24.091Z,100913.50
2022-11-24T22:23:52.659Z,100902.16
2022-11-24T22:26:23.703Z,100903.00
2022-11-24T22:28:52.825Z,100905.66
2022-11-24T22:31:27.297Z,100903.03
2022-11-24T22:33:56.945Z,100902.19
2022-11-24T22:36:28.742Z,100899.56
2022-11-24T22:39:04.941Z,100900.44
2022-11-24T22:41:35.392Z,100890.00
2022-11-24T22:44:02.818Z,100891.72
2022-11-24T22:46:31.913Z,100883.88
2022-11-24T22:49:01.398Z,100893.47
2022-11-24T22:51:32.477Z,100881.22
2022-11-24T22:54:05.501Z,100875.97
2022-11-24T22:56:34.151Z,100878.53
2022-11-24T22:59:02.965Z,100879.38
2022-11-24T23:01:33.583Z,100884.59
2022-11-24T23:04:03.567Z,100869.72
2022-11-24T23:06:32.728Z,100879.28
2022-11-24T23:09:02.389Z,100881.03
2022-11-24T23:11:41.156Z,100882.72
2022-11-24T23:14:15.253Z,100887.94
2022-11-24T23:16:43.883Z,100878.28
2022-11-24T23:19:11.319Z,100878.25
2022-11-24T23:21:39.333Z,100882.63
2022-11-24T23:24:08.678Z,100881.69
2022-11-24T23:26:39.405Z,100876.44
2022-11-24T23:29:08.084Z,100879.03
2022-11-24T23:31:36.291Z,100876.38
2022-11-24T23:34:04.057Z,100876.34
2022-11-24T23:36:32.984Z,100878.94
2022-11-24T23:39:10.853Z,100874.56
2022-11-24T23:41:38.276Z,100880.63
2022-11-24T23:44:06.661Z,100873.63
2022-11-24T23:46:34.189Z,100876.22
2022-11-24T23:49:01.633Z,100878.81
2022-11-24T23:51:32.382Z,100884.84
2022-11-24T23:54:00.633Z,100874.44
2022-11-24T23:56:35.307Z,100881.38
2022-11-24T23:59:04.669Z,100869.19
